createdAt,value
2022-10-04T00:00:36.076Z,10.00
2022-10-04T00:03:31.224Z,15.90
2022-10-04T00:06:01.749Z,12.40
2022-10-04T00:11:24.902Z,12.40
2022-10-04T00:13:59.112Z,7.00
2022-10-04T00:16:51.357Z,11.50
2022-10-04T00:19:38.895Z,7.10
2022-10-04T00:25:13.843Z,7.70
2022-10-04T00:28:22.583Z,12.00
2022-10-04T00:31:29.326Z,5.20
2022-10-04T00:34:39.491Z,9.20
2022-10-04T00:37:23.522Z,5.10
2022-10-04T00:40:19.057Z,7.20
2022-10-04T00:43:09.330Z,6.70
2022-10-04T00:45:44.130Z,5.30
2022-10-04T00:48:31.743Z,4.10
2022-10-04T00:51:10.458Z,8.90
2022-10-04T00:54:04.979Z,4.20
2022-10-04T00:56:46.713Z,6.30
2022-10-04T01:02:46.255Z,4.40
2022-10-04T01:05:34.771Z,4.60
2022-10-04T01:08:14.346Z,4.80
2022-10-04T01:10:57.109Z,5.90
2022-10-04T01:13:36.624Z,5.10
2022-10-04T01:19:00.399Z,6.10
2022-10-04T01:21:31.717Z,3.00
2022-10-04T01:23:59.960Z,4.30
2022-10-04T01:26:39.714Z,5.80
2022-10-04T01:31:46.783Z,4.50
2022-10-04T01:37:08.036Z,4.40
2022-10-04T01:39:52.521Z,6.00
2022-10-04T01:45:05.599Z,5.20
2022-10-04T01:47:42.486Z,4.60
2022-10-04T01:50:24.504Z,4.30
2022-10-04T01:53:14.019Z,3.40
2022-10-04T01:55:51.142Z,5.60
2022-10-04T01:58:34.473Z,6.30
2022-10-04T02:01:21.903Z,5.10
2022-10-04T02:04:22.556Z,4.60
2022-10-04T02:07:29.037Z,7.20
2022-10-04T02:10:03.675Z,5.60
2022-10-04T02:12:34.300Z,6.00
2022-10-04T02:15:11.822Z,6.90
2022-10-04T02:17:53.930Z,5.80
2022-10-04T02:20:43.175Z,6.60
2022-10-04T02:23:14.354Z,4.60
2022-10-04T02:25:42.778Z,4.20
2022-10-04T02:28:22.349Z,4.80
2022-10-04T02:31:20.269Z,2.80
2022-10-04T02:33:51.778Z,4.00
2022-10-04T02:36:26.150Z,5.70
2022-10-04T02:39:26.982Z,7.30
2022-10-04T02:42:29.406Z,6.20
2022-10-04T02:45:21.187Z,5.50
2022-10-04T02:48:03.427Z,4.40
2022-10-04T02:50:38.677Z,6.40
2022-10-04T02:56:19.216Z,6.60
2022-10-04T02:58:48.321Z,6.40
2022-10-04T03:01:28.928Z,6.80
2022-10-04T03:07:00.025Z,4.70
2022-10-04T03:09:30.947Z,5.30
2022-10-04T03:12:34.446Z,5.40
2022-10-04T03:15:20.704Z,5.70
2022-10-04T03:17:55.211Z,5.90
2022-10-04T03:20:40.609Z,4.70
2022-10-04T03:23:13.387Z,6.60
2022-10-04T03:26:07.453Z,4.80
2022-10-04T03:28:38.566Z,8.30
2022-10-04T03:31:07.179Z,7.80
2022-10-04T03:33:44.337Z,4.00
2022-10-04T03:36:19.249Z,4.70
2022-10-04T03:38:52.648Z,3.80
2022-10-04T03:41:23.381Z,6.80
2022-10-04T03:43:54.301Z,7.30
2022-10-04T03:46:28.432Z,6.40
2022-10-04T03:48:58.029Z,6.70
2022-10-04T03:51:27.626Z,4.30
2022-10-04T03:54:02.255Z,7.00
2022-10-04T03:56:35.291Z,6.70
2022-10-04T03:59:08.426Z,5.90
2022-10-04T04:01:44.527Z,6.90
2022-10-04T04:04:25.076Z,7.80
2022-10-04T04:07:14.945Z,5.60
2022-10-04T04:09:51.280Z,4.80
2022-10-04T04:12:25.750Z,5.70
2022-10-04T04:14:54.516Z,5.10
2022-10-04T04:17:25.733Z,5.80
2022-10-04T04:20:04.784Z,5.20
2022-10-04T04:22:36.462Z,5.30
2022-10-04T04:25:17.447Z,6.90
2022-10-04T04:27:49.592Z,4.00
2022-10-04T04:30:18.866Z,5.20
2022-10-04T04:32:52.815Z,6.10
2022-10-04T04:35:39.318Z,6.30
2022-10-04T04:38:24.755Z,5.50
2022-10-04T04:40:57.481Z,5.20
2022-10-04T04:43:27.891Z,6.20
2022-10-04T04:46:25.988Z,6.90
2022-10-04T04:49:04.057Z,6.80
2022-10-04T04:51:33.704Z,7.20
2022-10-04T04:54:07.240Z,6.20
2022-10-04T04:56:41.264Z,6.80
2022-10-04T04:59:12.166Z,8.90
2022-10-04T05:01:48.032Z,10.90
2022-10-04T05:04:21.552Z,6.10
2022-10-04T05:07:00.302Z,5.90
2022-10-04T05:09:32.650Z,8.40
2022-10-04T05:12:08.249Z,11.40
2022-10-04T05:14:45.517Z,6.20
2022-10-04T05:20:16.064Z,5.60
2022-10-04T05:25:39.550Z,10.80
2022-10-04T05:28:15.534Z,11.40
2022-10-04T05:31:56.235Z,6.80
2022-10-04T05:34:27.583Z,9.90
2022-10-04T05:37:30.299Z,12.50
2022-10-04T05:41:02.066Z,7.80
2022-10-04T05:43:36.694Z,10.40
2022-10-04T05:46:28.338Z,9.70
2022-10-04T05:49:01.541Z,9.30
2022-10-04T05:51:37.700Z,12.30
2022-10-04T05:54:10.247Z,11.00
2022-10-04T05:56:47.459Z,13.20
2022-10-04T06:02:31.431Z,7.00
2022-10-04T06:05:28.187Z,9.90
2022-10-04T06:08:32.574Z,14.20
2022-10-04T06:11:21.027Z,11.10
2022-10-04T06:14:33.728Z,8.10
2022-10-04T06:17:26.896Z,8.40
2022-10-04T06:20:10.460Z,9.10
2022-10-04T06:29:01.382Z,8.60
2022-10-04T06:32:04.784Z,6.60
2022-10-04T06:34:52.055Z,5.90
2022-10-04T06:37:49.169Z,7.40
2022-10-04T06:40:22.765Z,8.30
2022-10-04T06:43:03.531Z,7.00
2022-10-04T06:45:58.097Z,7.80
2022-10-04T06:48:47.661Z,10.30
2022-10-04T06:51:22.087Z,12.00
2022-10-04T06:54:19.002Z,7.20
2022-10-04T06:57:11.661Z,15.00
2022-10-04T07:00:05.105Z,8.40
2022-10-04T07:03:05.757Z,12.80
2022-10-04T07:06:01.244Z,10.20
2022-10-04T07:08:56.281Z,7.20
2022-10-04T07:11:30.339Z,5.60
2022-10-04T07:14:04.325Z,4.80
2022-10-04T07:16:43.507Z,4.50
2022-10-04T07:19:30.101Z,4.50
2022-10-04T07:22:07.300Z,5.10
2022-10-04T07:24:45.849Z,9.30
2022-10-04T07:27:20.286Z,5.90
2022-10-04T07:29:55.414Z,7.80
2022-10-04T07:32:31.164Z,3.60
2022-10-04T07:35:17.085Z,4.90
2022-10-04T07:38:16.431Z,3.40
2022-10-04T07:41:04.046Z,3.30
2022-10-04T07:43:36.986Z,3.30
2022-10-04T07:46:15.299Z,3.10
2022-10-04T07:48:44.135Z,4.30
2022-10-04T07:51:18.656Z,2.70
2022-10-04T07:54:16.767Z,5.80
2022-10-04T07:56:58.467Z,2.90
2022-10-04T07:59:48.654Z,2.00
2022-10-04T08:02:34.023Z,2.10
2022-10-04T08:05:28.550Z,2.50
2022-10-04T08:08:20.876Z,3.10
2022-10-04T08:11:07.367Z,3.00
2022-10-04T08:14:10.362Z,8.90
2022-10-04T08:16:46.789Z,5.80
2022-10-04T08:19:23.700Z,4.00
2022-10-04T08:22:23.416Z,4.40
2022-10-04T08:28:22.602Z,2.90
2022-10-04T08:31:12.575Z,3.20
2022-10-04T08:34:13.033Z,2.30
2022-10-04T08:37:15.874Z,2.90
2022-10-04T08:40:03.090Z,2.40
2022-10-04T08:43:14.652Z,3.10
2022-10-04T08:46:21.308Z,2.30
2022-10-04T08:49:16.989Z,2.00
2022-10-04T08:52:13.102Z,2.90
2022-10-04T08:54:44.320Z,2.10
2022-10-04T08:57:19.576Z,4.00
2022-10-04T09:00:07.030Z,2.40
2022-10-04T09:02:41.777Z,3.20
2022-10-04T09:05:42.737Z,6.60
2022-10-04T09:08:16.693Z,2.70
2022-10-04T09:11:12.468Z,5.30
2022-10-04T09:14:05.820Z,4.80
2022-10-04T09:16:47.577Z,1.50
2022-10-04T09:19:33.100Z,4.10
2022-10-04T09:22:19.264Z,2.40
2022-10-04T09:25:05.760Z,5.40
2022-10-04T09:27:59.796Z,5.00
2022-10-04T09:31:05.524Z,3.30
2022-10-04T09:34:17.313Z,5.70
2022-10-04T09:37:14.336Z,4.40
2022-10-04T09:40:01.331Z,2.30
2022-10-04T09:42:45.555Z,2.50
2022-10-04T09:45:47.147Z,2.00
2022-10-04T09:48:26.398Z,2.00
2022-10-04T09:51:09.748Z,3.20
2022-10-04T09:53:37.913Z,2.70
2022-10-04T09:56:22.492Z,4.00
2022-10-04T09:59:36.791Z,2.40
2022-10-04T10:02:17.993Z,2.00
2022-10-04T10:04:51.760Z,3.50
2022-10-04T10:07:28.971Z,2.30
2022-10-04T10:10:42.035Z,11.60
2022-10-04T10:13:43.183Z,5.10
2022-10-04T10:16:53.552Z,2.70
2022-10-04T10:19:44.622Z,2.00
2022-10-04T10:22:37.679Z,2.50
2022-10-04T10:25:17.843Z,3.10
2022-10-04T10:27:55.403Z,1.40
2022-10-04T10:30:48.849Z,3.40
2022-10-04T10:33:54.736Z,1.10
2022-10-04T10:36:39.645Z,1.90
2022-10-04T10:39:19.931Z,3.10
2022-10-04T10:44:56.453Z,2.60
2022-10-04T10:47:50.734Z,3.90
2022-10-04T10:53:36.181Z,1.70
2022-10-04T10:56:42.754Z,3.10
2022-10-04T10:59:20.316Z,1.30
2022-10-04T11:02:15.613Z,2.90
2022-10-04T11:05:02.623Z,5.50
2022-10-04T11:07:33.776Z,5.90
2022-10-04T11:10:25.924Z,7.90
2022-10-04T11:13:20.161Z,7.40
2022-10-04T11:15:52.792Z,2.80
2022-10-04T11:19:06.412Z,3.50
2022-10-04T11:21:47.258Z,2.90
2022-10-04T11:27:57.436Z,2.90
2022-10-04T11:30:29.990Z,2.90
2022-10-04T11:33:10.288Z,2.10
2022-10-04T11:35:55.716Z,4.00
2022-10-04T11:38:53.772Z,3.60
2022-10-04T11:41:48.271Z,2.60
2022-10-04T11:44:38.156Z,1.90
2022-10-04T11:47:08.317Z,3.70
2022-10-04T11:49:46.366Z,5.30
2022-10-04T11:52:37.133Z,5.00
2022-10-04T11:55:38.449Z,3.40
2022-10-04T11:58:25.347Z,3.00
2022-10-04T12:01:15.172Z,5.10
2022-10-04T12:03:44.585Z,2.10
2022-10-04T12:06:41.943Z,4.80
2022-10-04T12:09:25.031Z,5.50
2022-10-04T12:12:17.850Z,2.70
2022-10-04T12:14:53.710Z,2.00
2022-10-04T12:18:00.428Z,2.20
2022-10-04T12:21:06.835Z,2.20
2022-10-04T12:23:54.154Z,1.30
2022-10-04T12:26:33.049Z,1.40
2022-10-04T12:29:29.038Z,1.50
2022-10-04T12:32:04.877Z,2.50
2022-10-04T12:35:00.219Z,1.90
2022-10-04T12:37:28.268Z,1.10
2022-10-04T12:40:24.552Z,1.70
2022-10-04T12:43:14.930Z,4.00
2022-10-04T12:46:04.174Z,2.70
2022-10-04T12:48:48.208Z,2.60
2022-10-04T12:51:34.884Z,3.00
2022-10-04T12:54:15.278Z,5.30
2022-10-04T12:56:46.794Z,2.10
2022-10-04T12:59:34.955Z,4.70
2022-10-04T13:02:34.057Z,2.80
2022-10-04T13:05:34.631Z,3.90
2022-10-04T13:08:19.415Z,2.00
2022-10-04T13:11:13.432Z,5.70
2022-10-04T13:13:44.863Z,2.60
2022-10-04T13:19:17.029Z,3.60
2022-10-04T13:21:45.353Z,2.70
2022-10-04T13:24:53.345Z,3.00
2022-10-04T13:27:38.681Z,4.50
2022-10-04T13:30:29.017Z,2.80
2022-10-04T13:33:07.201Z,2.50
2022-10-04T13:35:50.292Z,3.40
2022-10-04T13:38:18.354Z,1.80
2022-10-04T13:41:01.119Z,2.70
2022-10-04T13:44:15.441Z,4.80
2022-10-04T13:47:34.988Z,6.70
2022-10-04T13:50:30.106Z,2.40
2022-10-04T13:53:39.128Z,3.40
2022-10-04T13:56:56.772Z,2.70
2022-10-04T13:59:50.796Z,1.40
2022-10-04T14:02:56.607Z,2.60
2022-10-04T14:05:27.518Z,4.80
2022-10-04T14:08:12.632Z,1.60
2022-10-04T14:10:43.879Z,5.80
2022-10-04T14:13:36.867Z,3.50
2022-10-04T14:16:36.322Z,2.70
2022-10-04T14:19:10.823Z,1.70
2022-10-04T14:22:00.242Z,1.90
2022-10-04T14:24:46.783Z,4.20
2022-10-04T14:27:43.656Z,2.20
2022-10-04T14:30:26.017Z,1.80
2022-10-04T14:33:37.309Z,1.40
2022-10-04T14:36:43.685Z,4.70
2022-10-04T14:39:48.514Z,1.20
2022-10-04T14:42:41.847Z,2.50
2022-10-04T14:45:35.790Z,1.30
2022-10-04T14:48:41.296Z,4.60
2022-10-04T14:51:37.916Z,3.20
2022-10-04T14:54:29.043Z,3.50
2022-10-04T14:57:26.850Z,7.00
2022-10-04T15:00:11.528Z,3.60
2022-10-04T15:02:50.585Z,2.60
2022-10-04T15:05:44.503Z,2.60
2022-10-04T15:08:31.326Z,4.30
2022-10-04T15:11:05.192Z,4.90
2022-10-04T15:13:39.767Z,2.00
2022-10-04T15:16:14.502Z,2.90
2022-10-04T15:18:54.846Z,2.80
2022-10-04T15:24:37.084Z,4.80
2022-10-04T15:27:26.733Z,6.00
2022-10-04T15:30:00.946Z,7.00
2022-10-04T15:32:35.886Z,7.60
2022-10-04T15:35:21.001Z,5.50
2022-10-04T15:38:12.046Z,6.30
2022-10-04T15:41:02.471Z,6.00
2022-10-04T15:44:07.556Z,9.80
2022-10-04T15:47:08.517Z,7.40
2022-10-04T15:50:17.495Z,8.20
2022-10-04T15:53:23.590Z,10.50
2022-10-04T15:56:00.965Z,9.40
2022-10-04T15:58:54.350Z,9.70
2022-10-04T16:01:55.353Z,7.60
2022-10-04T16:04:46.632Z,9.20
2022-10-04T16:07:48.765Z,10.20
2022-10-04T16:10:27.665Z,11.20
2022-10-04T16:13:28.845Z,9.90
2022-10-04T16:16:15.755Z,7.40
2022-10-04T16:19:10.088Z,5.90
2022-10-04T16:21:47.618Z,5.30
2022-10-04T16:24:22.043Z,5.20
2022-10-04T16:26:56.471Z,6.40
2022-10-04T16:29:40.855Z,8.40
2022-10-04T16:32:18.076Z,5.60
2022-10-04T16:34:57.432Z,2.70
2022-10-04T16:37:38.204Z,8.50
2022-10-04T16:40:09.640Z,12.70
2022-10-04T16:42:50.439Z,10.00
2022-10-04T16:46:04.333Z,13.80
2022-10-04T16:48:56.329Z,6.40
2022-10-04T16:54:03.709Z,10.60
2022-10-04T16:59:05.367Z,7.10
2022-10-04T17:01:55.222Z,7.20
2022-10-04T17:04:36.476Z,3.90
2022-10-04T17:07:13.546Z,7.80
2022-10-04T17:09:56.465Z,10.40
2022-10-04T17:12:37.422Z,13.00
2022-10-04T17:15:14.665Z,11.10
2022-10-04T17:17:47.102Z,8.00
2022-10-04T17:20:50.060Z,7.60
2022-10-04T17:23:34.379Z,6.30
2022-10-04T17:26:08.545Z,5.60
2022-10-04T17:28:55.529Z,5.60
2022-10-04T17:31:28.643Z,5.70
2022-10-04T17:34:50.445Z,7.60
2022-10-04T17:37:36.296Z,8.00
2022-10-04T17:40:28.826Z,7.20
2022-10-04T17:43:35.253Z,7.10
2022-10-04T17:46:16.247Z,7.50
2022-10-04T17:49:13.810Z,8.90
2022-10-04T17:52:05.295Z,7.00
2022-10-04T17:55:04.144Z,6.30
2022-10-04T17:57:36.927Z,6.80
2022-10-04T18:00:12.877Z,9.20
2022-10-04T18:02:44.087Z,11.50
2022-10-04T18:05:33.283Z,6.00
2022-10-04T18:09:03.540Z,8.10
2022-10-04T18:11:53.512Z,8.30
2022-10-04T18:14:31.114Z,8.30
2022-10-04T18:17:29.196Z,9.10
2022-10-04T18:20:42.770Z,11.80
2022-10-04T18:23:24.903Z,13.10
2022-10-04T18:26:18.957Z,13.20
2022-10-04T18:28:53.960Z,13.30
2022-10-04T18:31:42.472Z,13.90
2022-10-04T18:34:11.147Z,9.00
2022-10-04T18:36:54.279Z,9.50
2022-10-04T18:39:24.477Z,9.90
2022-10-04T18:42:37.394Z,7.80
2022-10-04T18:45:34.653Z,6.70
2022-10-04T18:48:18.523Z,5.70
2022-10-04T18:50:56.601Z,8.10
2022-10-04T18:53:52.425Z,7.50
2022-10-04T18:56:21.007Z,4.70
2022-10-04T18:59:16.888Z,8.80
2022-10-04T19:02:13.592Z,5.60
2022-10-04T19:05:01.586Z,5.40
2022-10-04T19:07:32.868Z,5.00
2022-10-04T19:10:13.403Z,4.20
2022-10-04T19:13:14.667Z,4.90
2022-10-04T19:15:58.966Z,5.00
2022-10-04T19:18:57.605Z,5.70
2022-10-04T19:33:23.413Z,5.90
2022-10-04T19:36:15.125Z,5.50
2022-10-04T19:39:24.949Z,5.80
2022-10-04T19:42:06.435Z,5.40
2022-10-04T19:44:54.892Z,5.70
2022-10-04T19:48:00.669Z,4.50
2022-10-04T19:50:35.087Z,6.60
2022-10-04T19:53:18.428Z,5.00
2022-10-04T19:55:55.756Z,4.20
2022-10-04T19:58:36.189Z,7.10
2022-10-04T20:01:16.874Z,5.80
2022-10-04T20:03:45.100Z,5.40
2022-10-04T20:09:02.595Z,6.00
2022-10-04T20:11:39.262Z,6.20
2022-10-04T20:14:06.745Z,5.40
2022-10-04T20:16:49.141Z,5.20
2022-10-04T20:19:28.895Z,6.20
2022-10-04T20:22:07.785Z,6.00
2022-10-04T20:24:43.959Z,6.20
2022-10-04T20:27:29.797Z,6.30
2022-10-04T20:30:23.620Z,7.90
2022-10-04T20:32:54.726Z,5.10
2022-10-04T20:36:03.018Z,4.10
2022-10-04T20:38:51.322Z,5.80
2022-10-04T20:41:58.121Z,5.00
2022-10-04T20:44:56.313Z,4.30
2022-10-04T20:47:28.438Z,4.90
2022-10-04T20:50:17.722Z,6.30
2022-10-04T20:52:48.005Z,4.70
2022-10-04T20:55:28.229Z,5.20
2022-10-04T20:58:16.242Z,5.20
2022-10-04T21:01:08.085Z,7.80
2022-10-04T21:03:36.588Z,5.00
2022-10-04T21:06:14.785Z,3.70
2022-10-04T21:08:42.395Z,4.40
2022-10-04T21:11:43.501Z,4.40
2022-10-04T21:14:48.287Z,5.50
2022-10-04T21:17:35.323Z,5.30
2022-10-04T21:20:34.739Z,7.80
2022-10-04T21:23:29.421Z,7.80
2022-10-04T21:26:23.193Z,7.60
2022-10-04T21:28:59.194Z,7.80
2022-10-04T21:31:28.904Z,4.90
2022-10-04T21:33:55.647Z,4.20
2022-10-04T21:36:35.517Z,4.90
2022-10-04T21:39:02.198Z,7.40
2022-10-04T21:41:28.899Z,4.70
2022-10-04T21:43:55.696Z,5.20
2022-10-04T21:46:22.703Z,6.80
2022-10-04T21:48:54.965Z,3.90
2022-10-04T21:51:22.232Z,5.10
2022-10-04T21:53:49.251Z,6.40
2022-10-04T21:56:27.239Z,4.30
2022-10-04T21:58:54.050Z,6.40
2022-10-04T22:01:23.844Z,8.70
2022-10-04T22:03:54.968Z,5.90
2022-10-04T22:06:25.690Z,5.60
2022-10-04T22:08:52.703Z,6.40
2022-10-04T22:11:24.039Z,8.90
2022-10-04T22:13:50.810Z,5.40
2022-10-04T22:16:21.519Z,7.20
2022-10-04T22:19:01.496Z,3.20
2022-10-04T22:21:33.117Z,5.20
2022-10-04T22:24:03.448Z,5.90
2022-10-04T22:26:30.976Z,5.30
2022-10-04T22:29:14.174Z,7.30
2022-10-04T22:31:50.773Z,7.10
2022-10-04T22:34:23.052Z,6.90
2022-10-04T22:36:51.662Z,6.30
2022-10-04T22:39:20.539Z,5.90
2022-10-04T22:41:57.429Z,8.90
2022-10-04T22:44:30.988Z,4.30
2022-10-04T22:47:04.488Z,5.00
2022-10-04T22:49:35.742Z,6.00
2022-10-04T22:52:11.233Z,4.00
2022-10-04T22:54:45.678Z,3.30
2022-10-04T22:57:19.839Z,4.30
2022-10-04T22:59:50.020Z,4.20
2022-10-04T23:02:18.395Z,5.70
2022-10-04T23:04:51.081Z,4.30
2022-10-04T23:07:19.627Z,5.20
2022-10-04T23:09:47.253Z,5.20
2022-10-04T23:12:16.037Z,3.00
2022-10-04T23:17:36.846Z,6.80
2022-10-04T23:20:12.670Z,7.30
2022-10-04T23:22:49.870Z,3.60
2022-10-04T23:25:29.387Z,5.60
2022-10-04T23:28:00.518Z,6.10
2022-10-04T23:30:46.566Z,6.30
2022-10-04T23:33:22.268Z,3.80
2022-10-04T23:35:50.750Z,7.40
2022-10-04T23:38:23.690Z,3.90
2022-10-04T23:40:51.677Z,3.70
2022-10-04T23:43:28.535Z,4.90
2022-10-04T23:45:58.184Z,6.30
2022-10-04T23:48:31.907Z,5.30
2022-10-04T23:51:13.065Z,2.90
2022-10-04T23:53:45.708Z,4.50
2022-10-04T23:56:21.453Z,4.20
2022-10-04T23:59:03.673Z,4.40
